sensor_id;sensor_type;location;lat;lon;timestamp;pressure;altitude;pressure_sealevel;temperature;humidity
48053;BME280;33824;51.600;5.718;2023-05-09T00:00:27;101595.88;;;16.99;96.08
48053;BME280;33824;51.600;5.718;2023-05-09T00:03:10;101595.00;;;16.92;96.42
48053;BME280;33824;51.600;5.718;2023-05-09T00:05:37;101591.44;;;16.85;96.64
48053;BME280;33824;51.600;5.718;2023-05-09T00:08:03;101580.84;;;16.84;96.64
48053;BME280;33824;51.600;5.718;2023-05-09T00:10:29;101582.50;;;16.85;96.81
48053;BME280;33824;51.600;5.718;2023-05-09T00:12:55;101584.56;;;16.83;96.83
48053;BME280;33824;51.600;5.718;2023-05-09T00:15:21;101582.06;;;16.81;96.76
48053;BME280;33824;51.600;5.718;2023-05-09T00:17:48;101584.75;;;16.81;96.72
48053;BME280;33824;51.600;5.718;2023-05-09T00:20:14;101585.59;;;16.82;96.80
48053;BME280;33824;51.600;5.718;2023-05-09T00:22:40;101580.44;;;16.87;97.02
48053;BME280;33824;51.600;5.718;2023-05-09T00:25:07;101583.97;;;16.87;96.99
48053;BME280;33824;51.600;5.718;2023-05-09T00:27:33;101573.63;;;16.91;97.07
48053;BME280;33824;51.600;5.718;2023-05-09T00:29:59;101565.16;;;16.94;97.29
48053;BME280;33824;51.600;5.718;2023-05-09T00:32:24;101568.69;;;17.01;97.19
48053;BME280;33824;51.600;5.718;2023-05-09T00:34:50;101568.13;;;17.05;96.95
48053;BME280;33824;51.600;5.718;2023-05-09T00:37:16;101557.34;;;17.05;97.02
48053;BME280;33824;51.600;5.718;2023-05-09T00:39:44;101552.75;;;16.99;96.99
48053;BME280;33824;51.600;5.718;2023-05-09T00:42:10;101552.34;;;17.02;97.03
48053;BME280;33824;51.600;5.718;2023-05-09T00:44:38;101553.00;;;17.04;97.23
48053;BME280;33824;51.600;5.718;2023-05-09T00:47:05;101544.91;;;17.04;96.76
48053;BME280;33824;51.600;5.718;2023-05-09T00:49:31;101548.22;;;17.06;97.12
48053;BME280;33824;51.600;5.718;2023-05-09T00:51:57;101542.00;;;17.06;97.12
48053;BME280;33824;51.600;5.718;2023-05-09T00:54:24;101531.22;;;17.06;97.00
48053;BME280;33824;51.600;5.718;2023-05-09T00:56:50;101530.63;;;17.04;96.82
48053;BME280;33824;51.600;5.718;2023-05-09T00:59:16;101529.34;;;17.00;96.70
48053;BME280;33824;51.600;5.718;2023-05-09T01:01:42;101528.25;;;16.94;96.75
48053;BME280;33824;51.600;5.718;2023-05-09T01:04:08;101525.78;;;16.93;96.96
48053;BME280;33824;51.600;5.718;2023-05-09T01:06:54;101520.69;;;16.70;97.12
48053;BME280;33824;51.600;5.718;2023-05-09T01:09:42;101509.44;;;16.66;96.99
48053;BME280;33824;51.600;5.718;2023-05-09T01:12:33;101513.38;;;16.64;97.33
48053;BME280;33824;51.600;5.718;2023-05-09T01:15:15;101513.78;;;16.61;97.03
48053;BME280;33824;51.600;5.718;2023-05-09T01:17:52;101517.88;;;16.57;97.56
48053;BME280;33824;51.600;5.718;2023-05-09T01:26:01;101503.09;;;16.46;97.82
48053;BME280;33824;51.600;5.718;2023-05-09T01:28:35;101498.53;;;16.47;97.40
48053;BME280;33824;51.600;5.718;2023-05-09T01:31:06;101492.09;;;16.48;97.70
48053;BME280;33824;51.600;5.718;2023-05-09T01:33:35;101492.31;;;16.46;97.75
48053;BME280;33824;51.600;5.718;2023-05-09T01:36:04;101487.38;;;16.50;97.84
48053;BME280;33824;51.600;5.718;2023-05-09T01:38:33;101486.97;;;16.53;97.59
48053;BME280;33824;51.600;5.718;2023-05-09T01:41:01;101488.91;;;16.59;97.73
48053;BME280;33824;51.600;5.718;2023-05-09T01:43:32;101486.19;;;16.59;97.49
48053;BME280;33824;51.600;5.718;2023-05-09T01:45:58;101484.59;;;16.64;97.32
48053;BME280;33824;51.600;5.718;2023-05-09T01:48:24;101483.56;;;16.65;97.21
48053;BME280;33824;51.600;5.718;2023-05-09T01:50:52;101483.16;;;16.68;97.45
48053;BME280;33824;51.600;5.718;2023-05-09T01:53:21;101477.59;;;16.70;97.13
48053;BME280;33824;51.600;5.718;2023-05-09T01:55:48;101479.06;;;16.72;97.16
48053;BME280;33824;51.600;5.718;2023-05-09T01:58:17;101483.19;;;16.75;96.91
48053;BME280;33824;51.600;5.718;2023-05-09T02:00:44;101476.78;;;16.76;96.90
48053;BME280;33824;51.600;5.718;2023-05-09T02:03:11;101471.41;;;16.76;96.71
48053;BME280;33824;51.600;5.718;2023-05-09T02:05:37;101476.97;;;16.74;96.67
48053;BME280;33824;51.600;5.718;2023-05-09T02:08:04;101464.13;;;16.70;96.61
48053;BME280;33824;51.600;5.718;2023-05-09T02:10:29;101473.25;;;16.69;96.51
48053;BME280;33824;51.600;5.718;2023-05-09T02:12:55;101466.81;;;16.70;96.43
48053;BME280;33824;51.600;5.718;2023-05-09T02:15:24;101478.22;;;16.72;96.45
48053;BME280;33824;51.600;5.718;2023-05-09T02:17:51;101472.44;;;16.75;96.49
48053;BME280;33824;51.600;5.718;2023-05-09T02:20:16;101470.56;;;16.75;96.63
48053;BME280;33824;51.600;5.718;2023-05-09T02:22:42;101473.91;;;16.77;96.43
48053;BME280;33824;51.600;5.718;2023-05-09T02:25:10;101474.72;;;16.78;96.41
48053;BME280;33824;51.600;5.718;2023-05-09T02:27:39;101470.56;;;16.75;96.12
48053;BME280;33824;51.600;5.718;2023-05-09T02:30:07;101465.16;;;16.69;96.31
48053;BME280;33824;51.600;5.718;2023-05-09T02:32:35;101459.34;;;16.65;96.38
48053;BME280;33824;51.600;5.718;2023-05-09T02:35:03;101455.16;;;16.63;96.21
48053;BME280;33824;51.600;5.718;2023-05-09T02:37:31;101451.19;;;16.59;96.29
48053;BME280;33824;51.600;5.718;2023-05-09T02:39:57;101446.41;;;16.54;96.45
48053;BME280;33824;51.600;5.718;2023-05-09T02:42:25;101444.09;;;16.51;96.45
48053;BME280;33824;51.600;5.718;2023-05-09T02:44:53;101443.22;;;16.44;96.54
48053;BME280;33824;51.600;5.718;2023-05-09T02:47:19;101447.75;;;16.44;96.87
48053;BME280;33824;51.600;5.718;2023-05-09T02:49:45;101453.16;;;16.44;97.06
48053;BME280;33824;51.600;5.718;2023-05-09T02:52:11;101452.53;;;16.42;97.01
48053;BME280;33824;51.600;5.718;2023-05-09T02:54:37;101460.22;;;16.45;97.12
48053;BME280;33824;51.600;5.718;2023-05-09T02:57:03;101448.41;;;16.46;97.19
48053;BME280;33824;51.600;5.718;2023-05-09T02:59:29;101454.25;;;16.49;97.44
48053;BME280;33824;51.600;5.718;2023-05-09T03:01:55;101451.97;;;16.53;97.52
48053;BME280;33824;51.600;5.718;2023-05-09T03:04:21;101441.84;;;16.55;97.21
48053;BME280;33824;51.600;5.718;2023-05-09T03:06:46;101443.06;;;16.52;97.41
48053;BME280;33824;51.600;5.718;2023-05-09T03:09:12;101441.22;;;16.53;97.34
48053;BME280;33824;51.600;5.718;2023-05-09T03:11:37;101436.47;;;16.55;97.50
48053;BME280;33824;51.600;5.718;2023-05-09T03:14:03;101432.13;;;16.54;97.26
48053;BME280;33824;51.600;5.718;2023-05-09T03:16:50;101423.00;;;16.55;97.48
48053;BME280;33824;51.600;5.718;2023-05-09T03:19:16;101419.06;;;16.51;97.25
48053;BME280;33824;51.600;5.718;2023-05-09T03:21:41;101424.81;;;16.48;97.07
48053;BME280;33824;51.600;5.718;2023-05-09T03:24:09;101423.53;;;16.44;97.32
48053;BME280;33824;51.600;5.718;2023-05-09T03:26:34;101423.53;;;16.44;97.33
48053;BME280;33824;51.600;5.718;2023-05-09T03:29:00;101414.00;;;16.41;97.08
48053;BME280;33824;51.600;5.718;2023-05-09T03:31:26;101407.34;;;16.30;97.24
48053;BME280;33824;51.600;5.718;2023-05-09T03:33:52;101409.16;;;16.23;97.56
48053;BME280;33824;51.600;5.718;2023-05-09T03:36:17;101406.44;;;16.17;97.53
48053;BME280;33824;51.600;5.718;2023-05-09T03:38:43;101414.50;;;16.17;97.65
48053;BME280;33824;51.600;5.718;2023-05-09T03:41:08;101407.22;;;16.17;97.93
48053;BME280;33824;51.600;5.718;2023-05-09T03:43:34;101404.97;;;16.21;98.13
48053;BME280;33824;51.600;5.718;2023-05-09T03:45:59;101399.41;;;16.22;98.35
48053;BME280;33824;51.600;5.718;2023-05-09T03:48:25;101396.13;;;16.27;98.15
48053;BME280;33824;51.600;5.718;2023-05-09T03:50:51;101402.13;;;16.29;98.35
48053;BME280;33824;51.600;5.718;2023-05-09T03:53:16;101401.13;;;16.30;98.41
48053;BME280;33824;51.600;5.718;2023-05-09T03:55:42;101397.19;;;16.32;98.47
48053;BME280;33824;51.600;5.718;2023-05-09T03:58:07;101399.69;;;16.34;98.46
48053;BME280;33824;51.600;5.718;2023-05-09T04:00:33;101396.16;;;16.33;98.50
48053;BME280;33824;51.600;5.718;2023-05-09T04:02:59;101387.06;;;16.35;98.66
48053;BME280;33824;51.600;5.718;2023-05-09T04:05:24;101376.94;;;16.37;98.85
48053;BME280;33824;51.600;5.718;2023-05-09T04:07:51;101376.56;;;16.40;98.69
48053;BME280;33824;51.600;5.718;2023-05-09T04:10:17;101382.13;;;16.38;98.72
48053;BME280;33824;51.600;5.718;2023-05-09T04:12:42;101382.56;;;16.42;98.21
48053;BME280;33824;51.600;5.718;2023-05-09T04:15:08;101376.34;;;16.41;98.55
48053;BME280;33824;51.600;5.718;2023-05-09T04:17:36;101380.88;;;16.41;98.50
48053;BME280;33824;51.600;5.718;2023-05-09T04:20:01;101377.75;;;16.37;98.38
48053;BME280;33824;51.600;5.718;2023-05-09T04:22:27;101370.53;;;16.38;98.72
48053;BME280;33824;51.600;5.718;2023-05-09T04:24:53;101372.97;;;16.32;98.54
48053;BME280;33824;51.600;5.718;2023-05-09T04:27:19;101367.59;;;16.32;98.64
48053;BME280;33824;51.600;5.718;2023-05-09T04:29:44;101365.94;;;16.31;98.59
48053;BME280;33824;51.600;5.718;2023-05-09T04:32:10;101365.13;;;16.31;98.60
48053;BME280;33824;51.600;5.718;2023-05-09T04:34:36;101360.13;;;16.28;98.45
48053;BME280;33824;51.600;5.718;2023-05-09T04:37:01;101342.72;;;16.24;98.38
48053;BME280;33824;51.600;5.718;2023-05-09T04:39:27;101350.16;;;16.22;98.35
48053;BME280;33824;51.600;5.718;2023-05-09T04:41:52;101346.84;;;16.20;98.56
48053;BME280;33824;51.600;5.718;2023-05-09T04:44:18;101350.97;;;16.22;98.82
48053;BME280;33824;51.600;5.718;2023-05-09T04:46:44;101355.78;;;16.27;98.91
48053;BME280;33824;51.600;5.718;2023-05-09T04:49:09;101355.38;;;16.30;99.05
48053;BME280;33824;51.600;5.718;2023-05-09T04:51:35;101359.31;;;16.34;99.13
48053;BME280;33824;51.600;5.718;2023-05-09T04:54:00;101351.28;;;16.41;98.76
48053;BME280;33824;51.600;5.718;2023-05-09T04:56:26;101339.72;;;16.47;98.97
48053;BME280;33824;51.600;5.718;2023-05-09T04:58:51;101345.13;;;16.53;98.74
48053;BME280;33824;51.600;5.718;2023-05-09T05:01:17;101338.13;;;16.59;98.52
48053;BME280;33824;51.600;5.718;2023-05-09T05:03:43;101337.78;;;16.68;98.34
48053;BME280;33824;51.600;5.718;2023-05-09T05:06:08;101335.09;;;16.75;98.34
48053;BME280;33824;51.600;5.718;2023-05-09T05:08:34;101326.00;;;16.83;98.61
48053;BME280;33824;51.600;5.718;2023-05-09T05:11:00;101330.59;;;16.89;98.42
48053;BME280;33824;51.600;5.718;2023-05-09T05:13:25;101320.25;;;16.92;98.35
48053;BME280;33824;51.600;5.718;2023-05-09T05:15:51;101317.34;;;17.00;98.22
48053;BME280;33824;51.600;5.718;2023-05-09T05:18:18;101317.34;;;17.07;97.96
48053;BME280;33824;51.600;5.718;2023-05-09T05:20:44;101319.44;;;17.11;97.86
48053;BME280;33824;51.600;5.718;2023-05-09T05:23:09;101317.38;;;17.13;97.77
48053;BME280;33824;51.600;5.718;2023-05-09T05:25:35;101307.00;;;17.10;97.62
48053;BME280;33824;51.600;5.718;2023-05-09T05:28:00;101304.72;;;17.14;97.52
48053;BME280;33824;51.600;5.718;2023-05-09T05:30:26;101298.50;;;17.13;97.13
48053;BME280;33824;51.600;5.718;2023-05-09T05:32:51;101292.69;;;17.16;97.44
48053;BME280;33824;51.600;5.718;2023-05-09T05:35:17;101284.84;;;17.15;97.07
48053;BME280;33824;51.600;5.718;2023-05-09T05:37:43;101285.63;;;17.09;97.23
48053;BME280;33824;51.600;5.718;2023-05-09T05:40:09;101288.97;;;17.11;97.22
48053;BME280;33824;51.600;5.718;2023-05-09T05:42:35;101286.28;;;17.11;97.05
48053;BME280;33824;51.600;5.718;2023-05-09T05:45:00;101283.16;;;17.14;96.98
48053;BME280;33824;51.600;5.718;2023-05-09T05:47:37;101276.75;;;17.15;96.91
48053;BME280;33824;51.600;5.718;2023-05-09T05:50:04;101281.94;;;17.30;96.86
48053;BME280;33824;51.600;5.718;2023-05-09T05:52:40;101280.91;;;17.31;96.48
48053;BME280;33824;51.600;5.718;2023-05-09T05:55:08;101273.00;;;17.36;96.38
48053;BME280;33824;51.600;5.718;2023-05-09T05:57:33;101273.81;;;17.43;96.24
48053;BME280;33824;51.600;5.718;2023-05-09T06:00:00;101273.22;;;17.47;96.30
48053;BME280;33824;51.600;5.718;2023-05-09T06:02:25;101262.84;;;17.51;95.72
48053;BME280;33824;51.600;5.718;2023-05-09T06:04:51;101269.28;;;17.56;95.72
48053;BME280;33824;51.600;5.718;2023-05-09T06:07:16;101263.88;;;17.56;95.57
48053;BME280;33824;51.600;5.718;2023-05-09T06:09:42;101263.69;;;17.64;95.50
48053;BME280;33824;51.600;5.718;2023-05-09T06:12:07;101262.03;;;17.63;95.16
48053;BME280;33824;51.600;5.718;2023-05-09T06:14:33;101256.19;;;17.73;95.08
48053;BME280;33824;51.600;5.718;2023-05-09T06:16:59;101247.88;;;17.81;95.04
48053;BME280;33824;51.600;5.718;2023-05-09T06:19:24;101244.56;;;17.86;94.60
48053;BME280;33824;51.600;5.718;2023-05-09T06:21:50;101250.75;;;17.93;94.38
48053;BME280;33824;51.600;5.718;2023-05-09T06:24:16;101239.28;;;18.04;94.35
48053;BME280;33824;51.600;5.718;2023-05-09T06:26:41;101234.28;;;18.14;93.88
48053;BME280;33824;51.600;5.718;2023-05-09T06:29:07;101234.69;;;18.17;93.34
48053;BME280;33824;51.600;5.718;2023-05-09T06:31:33;101225.09;;;18.28;93.49
48053;BME280;33824;51.600;5.718;2023-05-09T06:34:03;101224.84;;;18.36;92.76
48053;BME280;33824;51.600;5.718;2023-05-09T06:36:29;101228.94;;;18.52;93.20
48053;BME280;33824;51.600;5.718;2023-05-09T06:38:55;101229.25;;;18.68;92.77
48053;BME280;33824;51.600;5.718;2023-05-09T06:41:20;101234.38;;;18.83;92.25
48053;BME280;33824;51.600;5.718;2023-05-09T06:43:46;101226.47;;;19.06;92.11
48053;BME280;33824;51.600;5.718;2023-05-09T06:46:12;101223.03;;;19.17;91.23
48053;BME280;33824;51.600;5.718;2023-05-09T06:48:37;101216.78;;;19.24;91.12
48053;BME280;33824;51.600;5.718;2023-05-09T06:51:03;101211.13;;;19.25;90.67
48053;BME280;33824;51.600;5.718;2023-05-09T06:53:28;101210.31;;;19.25;90.58
48053;BME280;33824;51.600;5.718;2023-05-09T06:55:54;101209.88;;;19.28;90.33
48053;BME280;33824;51.600;5.718;2023-05-09T06:58:20;101206.63;;;19.19;90.25
48053;BME280;33824;51.600;5.718;2023-05-09T07:00:45;101205.34;;;19.22;90.30
48053;BME280;33824;51.600;5.718;2023-05-09T07:03:12;101195.16;;;19.24;90.16
48053;BME280;33824;51.600;5.718;2023-05-09T07:05:37;101196.47;;;19.14;89.25
48053;BME280;33824;51.600;5.718;2023-05-09T07:08:03;101193.00;;;19.07;88.62
48053;BME280;33824;51.600;5.718;2023-05-09T07:10:29;101194.28;;;19.05;88.70
48053;BME280;33824;51.600;5.718;2023-05-09T07:12:54;101185.06;;;19.12;89.13
48053;BME280;33824;51.600;5.718;2023-05-09T07:15:20;101189.84;;;19.10;88.81
48053;BME280;33824;51.600;5.718;2023-05-09T07:17:46;101185.66;;;19.14;89.27
48053;BME280;33824;51.600;5.718;2023-05-09T07:20:11;101183.72;;;19.22;88.93
48053;BME280;33824;51.600;5.718;2023-05-09T07:22:37;101174.94;;;19.26;88.64
48053;BME280;33824;51.600;5.718;2023-05-09T07:25:05;101174.56;;;19.23;88.41
48053;BME280;33824;51.600;5.718;2023-05-09T07:27:30;101171.88;;;19.41;88.87
48053;BME280;33824;51.600;5.718;2023-05-09T07:29:56;101161.41;;;19.51;88.81
48053;BME280;33824;51.600;5.718;2023-05-09T07:32:22;101166.97;;;19.56;88.08
48053;BME280;33824;51.600;5.718;2023-05-09T07:34:47;101163.97;;;19.64;88.14
48053;BME280;33824;51.600;5.718;2023-05-09T07:37:13;101167.66;;;19.70;87.84
48053;BME280;33824;51.600;5.718;2023-05-09T07:39:38;101151.78;;;19.73;87.60
48053;BME280;33824;51.600;5.718;2023-05-09T07:42:04;101153.81;;;19.78;87.64
48053;BME280;33824;51.600;5.718;2023-05-09T07:44:31;101159.59;;;19.81;87.32
48053;BME280;33824;51.600;5.718;2023-05-09T07:46:57;101154.34;;;19.68;86.52
48053;BME280;33824;51.600;5.718;2023-05-09T07:49:26;101154.13;;;19.51;86.24
48053;BME280;33824;51.600;5.718;2023-05-09T07:51:52;101156.88;;;19.45;86.27
48053;BME280;33824;51.600;5.718;2023-05-09T07:54:17;101148.03;;;19.56;86.26
48053;BME280;33824;51.600;5.718;2023-05-09T07:56:43;101156.00;;;19.51;85.88
48053;BME280;33824;51.600;5.718;2023-05-09T07:59:08;101146.31;;;19.43;86.26
48053;BME280;33824;51.600;5.718;2023-05-09T08:01:35;101147.41;;;19.36;86.05
48053;BME280;33824;51.600;5.718;2023-05-09T08:04:00;101145.09;;;19.14;86.16
48053;BME280;33824;51.600;5.718;2023-05-09T08:06:26;101145.69;;;18.98;85.85
48053;BME280;33824;51.600;5.718;2023-05-09T08:08:51;101142.38;;;18.96;85.91
48053;BME280;33824;51.600;5.718;2023-05-09T08:11:17;101138.72;;;18.84;86.67
48053;BME280;33824;51.600;5.718;2023-05-09T08:13:42;101129.66;;;18.79;87.09
48053;BME280;33824;51.600;5.718;2023-05-09T08:16:08;101135.38;;;18.64;87.12
48053;BME280;33824;51.600;5.718;2023-05-09T08:18:34;101132.31;;;18.54;87.09
48053;BME280;33824;51.600;5.718;2023-05-09T08:20:59;101131.53;;;18.47;87.07
48053;BME280;33824;51.600;5.718;2023-05-09T08:23:25;101124.84;;;18.49;87.05
48053;BME280;33824;51.600;5.718;2023-05-09T08:25:52;101120.09;;;18.76;87.28
48053;BME280;33824;51.600;5.718;2023-05-09T08:28:18;101115.56;;;18.95;86.83
48053;BME280;33824;51.600;5.718;2023-05-09T08:30:44;101109.75;;;18.98;85.86
48053;BME280;33824;51.600;5.718;2023-05-09T08:33:10;101109.84;;;19.09;86.16
48053;BME280;33824;51.600;5.718;2023-05-09T08:35:35;101101.34;;;19.24;85.42
48053;BME280;33824;51.600;5.718;2023-05-09T08:38:01;101105.47;;;19.27;84.05
48053;BME280;33824;51.600;5.718;2023-05-09T08:40:26;101092.94;;;19.32;84.20
48053;BME280;33824;51.600;5.718;2023-05-09T08:42:52;101100.91;;;19.27;83.64
48053;BME280;33824;51.600;5.718;2023-05-09T08:45:22;101099.41;;;19.31;83.68
48053;BME280;33824;51.600;5.718;2023-05-09T08:47:50;101092.81;;;19.45;84.45
48053;BME280;33824;51.600;5.718;2023-05-09T08:50:16;101093.50;;;19.59;84.36
48053;BME280;33824;51.600;5.718;2023-05-09T08:52:42;101090.72;;;19.66;84.18
48053;BME280;33824;51.600;5.718;2023-05-09T08:55:08;101087.16;;;19.65;83.75
48053;BME280;33824;51.600;5.718;2023-05-09T08:57:33;101093.56;;;19.52;83.18
48053;BME280;33824;51.600;5.718;2023-05-09T09:00:00;101094.44;;;19.28;82.65
48053;BME280;33824;51.600;5.718;2023-05-09T09:02:25;101096.91;;;19.11;82.99
48053;BME280;33824;51.600;5.718;2023-05-09T09:04:53;101093.38;;;19.11;83.04
48053;BME280;33824;51.600;5.718;2023-05-09T09:07:18;101087.13;;;18.92;83.14
48053;BME280;33824;51.600;5.718;2023-05-09T09:09:46;101086.47;;;18.97;83.22
48053;BME280;33824;51.600;5.718;2023-05-09T09:12:14;101085.97;;;18.82;82.92
48053;BME280;33824;51.600;5.718;2023-05-09T09:14:47;101085.91;;;18.88;82.73
48053;BME280;33824;51.600;5.718;2023-05-09T09:17:17;101082.63;;;19.04;83.28
48053;BME280;33824;51.600;5.718;2023-05-09T09:19:48;101078.97;;;19.17;83.08
48053;BME280;33824;51.600;5.718;2023-05-09T09:22:15;101075.81;;;19.20;82.71
48053;BME280;33824;51.600;5.718;2023-05-09T09:24:42;101076.56;;;19.09;82.91
48053;BME280;33824;51.600;5.718;2023-05-09T09:27:08;101069.66;;;19.13;82.95
48053;BME280;33824;51.600;5.718;2023-05-09T09:29:34;101064.25;;;19.13;82.94
48053;BME280;33824;51.600;5.718;2023-05-09T09:32:03;101068.75;;;19.01;82.53
48053;BME280;33824;51.600;5.718;2023-05-09T09:34:30;101068.50;;;19.02;83.52
48053;BME280;33824;51.600;5.718;2023-05-09T09:36:55;101057.41;;;19.10;83.24
48053;BME280;33824;51.600;5.718;2023-05-09T09:39:21;101058.03;;;19.12;83.29
48053;BME280;33824;51.600;5.718;2023-05-09T09:41:47;101069.72;;;19.06;84.02
48053;BME280;33824;51.600;5.718;2023-05-09T09:44:17;101065.59;;;19.04;84.44
48053;BME280;33824;51.600;5.718;2023-05-09T09:46:53;101060.84;;;18.99;84.07
48053;BME280;33824;51.600;5.718;2023-05-09T09:49:20;101065.66;;;18.97;83.01
48053;BME280;33824;51.600;5.718;2023-05-09T09:51:50;101060.66;;;18.76;83.34
48053;BME280;33824;51.600;5.718;2023-05-09T09:54:16;101058.56;;;18.60;84.51
48053;BME280;33824;51.600;5.718;2023-05-09T09:56:46;101052.53;;;18.58;85.43
48053;BME280;33824;51.600;5.718;2023-05-09T09:59:17;101058.69;;;18.40;86.85
48053;BME280;33824;51.600;5.718;2023-05-09T10:02:03;101051.28;;;18.29;88.49
48053;BME280;33824;51.600;5.718;2023-05-09T10:04:32;101056.44;;;18.37;88.40
48053;BME280;33824;51.600;5.718;2023-05-09T10:07:03;101054.69;;;18.18;88.69
48053;BME280;33824;51.600;5.718;2023-05-09T10:09:29;101060.81;;;18.07;89.51
48053;BME280;33824;51.600;5.718;2023-05-09T10:11:56;101047.34;;;18.00;90.09
48053;BME280;33824;51.600;5.718;2023-05-09T10:14:26;101061.66;;;18.01;89.80
48053;BME280;33824;51.600;5.718;2023-05-09T10:16:55;101057.97;;;17.95;89.86
48053;BME280;33824;51.600;5.718;2023-05-09T10:19:24;101051.94;;;17.93;90.45
48053;BME280;33824;51.600;5.718;2023-05-09T10:21:55;101052.44;;;17.84;90.34
48053;BME280;33824;51.600;5.718;2023-05-09T10:24:40;101051.22;;;17.80;91.03
48053;BME280;33824;51.600;5.718;2023-05-09T10:27:09;101046.09;;;17.96;89.73
48053;BME280;33824;51.600;5.718;2023-05-09T10:29:48;101044.50;;;17.89;90.31
48053;BME280;33824;51.600;5.718;2023-05-09T10:32:22;101044.50;;;17.89;90.37
48053;BME280;33824;51.600;5.718;2023-05-09T10:34:53;101044.19;;;17.72;89.88
48053;BME280;33824;51.600;5.718;2023-05-09T10:37:23;101040.72;;;17.58;90.65
48053;BME280;33824;51.600;5.718;2023-05-09T10:39:50;101036.44;;;17.38;92.17
48053;BME280;33824;51.600;5.718;2023-05-09T10:42:18;101034.84;;;17.17;92.94
48053;BME280;33824;51.600;5.718;2023-05-09T10:44:45;101032.78;;;17.12;93.46
48053;BME280;33824;51.600;5.718;2023-05-09T10:47:11;101030.19;;;16.93;94.35
48053;BME280;33824;51.600;5.718;2023-05-09T10:49:37;101028.94;;;16.89;94.59
48053;BME280;33824;51.600;5.718;2023-05-09T10:52:03;101019.00;;;16.83;95.74
48053;BME280;33824;51.600;5.718;2023-05-09T10:54:30;101023.94;;;16.86;94.65
48053;BME280;33824;51.600;5.718;2023-05-09T10:56:59;101019.41;;;16.86;94.67
48053;BME280;33824;51.600;5.718;2023-05-09T10:59:41;101028.34;;;16.73;94.96
48053;BME280;33824;51.600;5.718;2023-05-09T11:02:13;101022.94;;;16.67;95.93
48053;BME280;33824;51.600;5.718;2023-05-09T11:04:39;101017.78;;;16.72;95.63
48053;BME280;33824;51.600;5.718;2023-05-09T11:07:34;101013.66;;;16.43;97.40
48053;BME280;33824;51.600;5.718;2023-05-09T11:10:14;101003.50;;;16.39;96.96
48053;BME280;33824;51.600;5.718;2023-05-09T11:12:56;101012.59;;;16.44;97.42
48053;BME280;33824;51.600;5.718;2023-05-09T11:15:23;101005.16;;;16.59;97.21
48053;BME280;33824;51.600;5.718;2023-05-09T11:18:05;101003.50;;;16.58;97.54
48053;BME280;33824;51.600;5.718;2023-05-09T11:20:41;100996.69;;;16.62;97.05
48053;BME280;33824;51.600;5.718;2023-05-09T11:23:07;100993.50;;;16.78;97.13
48053;BME280;33824;51.600;5.718;2023-05-09T11:25:34;100993.09;;;16.88;97.29
48053;BME280;33824;51.600;5.718;2023-05-09T11:28:00;100980.22;;;16.97;97.51
48053;BME280;33824;51.600;5.718;2023-05-09T11:30:42;100981.03;;;17.04;97.34
48053;BME280;33824;51.600;5.718;2023-05-09T11:33:27;100974.03;;;16.83;97.79
48053;BME280;33824;51.600;5.718;2023-05-09T11:36:30;100976.13;;;16.74;98.59
48053;BME280;33824;51.600;5.718;2023-05-09T11:39:09;100971.75;;;16.87;97.97
48053;BME280;33824;51.600;5.718;2023-05-09T11:41:40;100963.50;;;16.82;98.01
48053;BME280;33824;51.600;5.718;2023-05-09T11:44:14;100970.16;;;16.46;99.89
48053;BME280;33824;51.600;5.718;2023-05-09T11:46:41;100962.91;;;16.53;99.58
48053;BME280;33824;51.600;5.718;2023-05-09T11:49:07;100956.28;;;16.49;100.00
48053;BME280;33824;51.600;5.718;2023-05-09T11:51:35;100958.59;;;16.39;100.00
48053;BME280;33824;51.600;5.718;2023-05-09T11:54:03;100958.19;;;16.36;100.00
48053;BME280;33824;51.600;5.718;2023-05-09T11:56:29;100948.81;;;16.45;100.00
48053;BME280;33824;51.600;5.718;2023-05-09T11:58:54;100948.25;;;16.23;100.00
48053;BME280;33824;51.600;5.718;2023-05-09T12:01:21;100950.50;;;16.32;100.00
48053;BME280;33824;51.600;5.718;2023-05-09T12:03:50;100944.31;;;16.32;100.00
48053;BME280;33824;51.600;5.718;2023-05-09T12:06:17;100938.09;;;16.25;100.00
48053;BME280;33824;51.600;5.718;2023-05-09T12:08:44;100930.19;;;16.37;100.00
48053;BME280;33824;51.600;5.718;2023-05-09T12:11:10;100937.47;;;16.43;100.00
48053;BME280;33824;51.600;5.718;2023-05-09T12:13:44;100938.06;;;16.45;100.00
48053;BME280;33824;51.600;5.718;2023-05-09T12:16:09;100930.84;;;16.39;100.00
48053;BME280;33824;51.600;5.718;2023-05-09T12:18:35;100933.31;;;16.40;100.00
48053;BME280;33824;51.600;5.718;2023-05-09T12:21:01;100918.41;;;16.51;100.00
48053;BME280;33824;51.600;5.718;2023-05-09T12:23:26;100929.16;;;16.44;100.00
48053;BME280;33824;51.600;5.718;2023-05-09T12:25:53;100924.38;;;16.59;100.00
48053;BME280;33824;51.600;5.718;2023-05-09T12:28:23;100921.91;;;16.64;100.00
48053;BME280;33824;51.600;5.718;2023-05-09T12:30:50;100922.94;;;16.70;100.00
48053;BME280;33824;51.600;5.718;2023-05-09T12:33:16;100918.16;;;16.72;100.00
48053;BME280;33824;51.600;5.718;2023-05-09T12:35:47;100906.56;;;16.65;100.00
48053;BME280;33824;51.600;5.718;2023-05-09T12:38:21;100920.25;;;16.50;100.00
48053;BME280;33824;51.600;5.718;2023-05-09T12:40:49;100912.19;;;16.57;100.00
48053;BME280;33824;51.600;5.718;2023-05-09T12:43:23;100922.13;;;16.50;100.00
48053;BME280;33824;51.600;5.718;2023-05-09T12:45:51;100908.66;;;16.56;100.00
48053;BME280;33824;51.600;5.718;2023-05-09T12:48:17;100911.34;;;16.63;100.00
48053;BME280;33824;51.600;5.718;2023-05-09T12:50:45;100914.03;;;16.63;100.00
48053;BME280;33824;51.600;5.718;2023-05-09T12:53:11;100909.91;;;16.60;100.00
48053;BME280;33824;51.600;5.718;2023-05-09T12:55:40;100909.09;;;16.47;100.00
48053;BME280;33824;51.600;5.718;2023-05-09T12:58:05;100909.53;;;16.24;100.00